Time;durP1;ratioP1;P1;durP2;ratioP2;P2;SDS_P1;SDS_P2;PMS_P1;PMS_P2;Temp;Humidity;BMP_temperature;BMP_pressure;BME280_temperature;BME280_humidity;BME280_pressure;Samples;Min_cycle;Max_cycle;Signal;HPM_P1;HPM_P2
2022/04/13 00:00:28;;;;;;;6.30;1.90;;;;;;;;;;5051724;28;20786;-57
2022/04/13 00:02:55;;;;;;;4.50;1.70;;;;;;;;;;5050414;28;20502;-57
2022/04/13 00:05:21;;;;;;;3.97;1.70;;;;;;;;;;5052184;28;20029;-56
2022/04/13 00:07:47;;;;;;;5.75;1.90;;;;;;;;;;5052667;28;20074;-58
2022/04/13 00:10:14;;;;;;;6.00;1.92;;;;;;;;;;5051707;28;20112;-55
2022/04/13 00:12:40;;;;;;;6.22;1.90;;;;;;;;;;5052288;28;20112;-54
2022/04/13 00:15:07;;;;;;;4.53;2.00;;;;;;;;;;5051219;28;20111;-57
2022/04/13 00:17:33;;;;;;;7.95;2.00;;;;;;;;;;5050310;28;20052;-56
2022/04/13 00:19:59;;;;;;;6.95;2.35;;;;;;;;;;5051396;28;20442;-56
2022/04/13 00:22:26;;;;;;;5.30;1.95;;;;;;;;;;5051408;28;20025;-57
2022/04/13 00:24:52;;;;;;;5.13;1.60;;;;;;;;;;5051457;28;20029;-56
2022/04/13 00:27:18;;;;;;;6.35;2.25;;;;;;;;;;5048657;28;20029;-56
2022/04/13 00:29:44;;;;;;;5.45;2.13;;;;;;;;;;5034809;28;20124;-55
2022/04/13 00:32:09;;;;;;;4.40;1.88;;;;;;;;;;5051325;28;20474;-53
2022/04/13 00:34:36;;;;;;;8.30;2.10;;;;;;;;;;5050713;28;20056;-56
2022/04/13 00:37:02;;;;;;;3.85;1.90;;;;;;;;;;5050918;28;20110;-56
2022/04/13 00:39:28;;;;;;;4.78;1.73;;;;;;;;;;5051282;28;20549;-56
2022/04/13 00:41:57;;;;;;;5.57;2.15;;;;;;;;;;5051259;28;20028;-57
2022/04/13 00:44:23;;;;;;;6.20;1.83;;;;;;;;;;5051657;28;20435;-56
2022/04/13 00:46:50;;;;;;;4.68;1.80;;;;;;;;;;5050241;28;20120;-55
2022/04/13 00:49:16;;;;;;;3.60;1.63;;;;;;;;;;5050849;28;20116;-55
2022/04/13 00:51:43;;;;;;;5.68;1.95;;;;;;;;;;5051748;28;20029;-55
2022/04/13 00:54:10;;;;;;;4.07;1.58;;;;;;;;;;5051149;28;20021;-55
2022/04/13 00:56:39;;;;;;;4.90;1.58;;;;;;;;;;5050991;28;20116;-56
2022/04/13 00:59:06;;;;;;;4.85;1.95;;;;;;;;;;5050448;28;20123;-57
2022/04/13 01:01:34;;;;;;;3.50;1.30;;;;;;;;;;5050834;28;20414;-56
2022/04/13 01:04:00;;;;;;;3.53;1.67;;;;;;;;;;5046697;28;20032;-56
2022/04/13 01:06:27;;;;;;;4.93;2.10;;;;;;;;;;5048353;28;20566;-57
2022/04/13 01:08:55;;;;;;;5.85;1.77;;;;;;;;;;5050729;28;20029;-55
2022/04/13 01:11:22;;;;;;;4.93;2.00;;;;;;;;;;5050934;28;20796;-56
2022/04/13 01:13:48;;;;;;;4.65;1.67;;;;;;;;;;5050218;28;20027;-57
2022/04/13 01:16:14;;;;;;;3.33;1.63;;;;;;;;;;5050377;28;20017;-57
2022/04/13 01:18:41;;;;;;;4.05;1.50;;;;;;;;;;5049586;28;20044;-58
2022/04/13 01:21:12;;;;;;;4.97;2.28;;;;;;;;;;5050155;28;20033;-55
2022/04/13 01:23:39;;;;;;;4.40;1.92;;;;;;;;;;5050444;28;20025;-57
2022/04/13 01:26:05;;;;;;;3.45;1.52;;;;;;;;;;5050222;28;20033;-56
2022/04/13 01:28:31;;;;;;;4.85;1.77;;;;;;;;;;5048894;28;20045;-55
2022/04/13 01:30:57;;;;;;;3.80;1.60;;;;;;;;;;5050213;28;20056;-55
2022/04/13 01:33:25;;;;;;;5.13;1.83;;;;;;;;;;5050369;28;20063;-57
2022/04/13 01:35:52;;;;;;;3.13;1.63;;;;;;;;;;5050183;28;20731;-55
2022/04/13 01:38:18;;;;;;;5.40;1.50;;;;;;;;;;5050391;28;20036;-55
2022/04/13 01:40:45;;;;;;;4.35;1.40;;;;;;;;;;5050107;28;20454;-55
2022/04/13 01:43:11;;;;;;;6.20;2.05;;;;;;;;;;5048825;28;20072;-56
2022/04/13 01:45:37;;;;;;;5.25;1.95;;;;;;;;;;5050500;28;20052;-54
2022/04/13 01:48:03;;;;;;;4.00;1.88;;;;;;;;;;5044895;28;20756;-55
2022/04/13 01:50:29;;;;;;;5.07;1.88;;;;;;;;;;5050056;28;20092;-54
2022/04/13 01:52:55;;;;;;;5.32;1.60;;;;;;;;;;5049889;28;20036;-57
2022/04/13 01:55:21;;;;;;;4.47;1.92;;;;;;;;;;5049039;28;20032;-51
2022/04/13 01:57:47;;;;;;;4.40;1.73;;;;;;;;;;5048481;28;20815;-52
2022/04/13 02:00:14;;;;;;;5.68;1.60;;;;;;;;;;5049781;28;20029;-54
2022/04/13 02:02:40;;;;;;;3.80;1.70;;;;;;;;;;5050334;28;20032;-56
2022/04/13 02:05:06;;;;;;;4.45;1.80;;;;;;;;;;5049442;28;20044;-54
2022/04/13 02:07:32;;;;;;;6.05;1.58;;;;;;;;;;5049496;28;20025;-53
2022/04/13 02:09:58;;;;;;;4.40;1.50;;;;;;;;;;5049600;28;20051;-55
2022/04/13 02:12:24;;;;;;;4.68;1.88;;;;;;;;;;5049125;28;20574;-56
2022/04/13 02:14:50;;;;;;;4.63;1.88;;;;;;;;;;5049348;28;20033;-54
2022/04/13 02:17:16;;;;;;;4.68;1.60;;;;;;;;;;5049693;28;20029;-56
2022/04/13 02:19:45;;;;;;;4.43;1.95;;;;;;;;;;5049464;28;20099;-57
2022/04/13 02:22:11;;;;;;;3.60;1.27;;;;;;;;;;5029291;28;20032;-57
2022/04/13 02:24:39;;;;;;;4.57;2.00;;;;;;;;;;5043680;28;20029;-55
2022/04/13 02:27:07;;;;;;;4.35;1.77;;;;;;;;;;5047767;28;20895;-55
2022/04/13 02:29:34;;;;;;;3.63;1.65;;;;;;;;;;5049179;28;20025;-54
2022/04/13 02:32:00;;;;;;;4.50;1.63;;;;;;;;;;5049358;28;20052;-56
2022/04/13 02:34:26;;;;;;;3.20;1.90;;;;;;;;;;5049147;28;20165;-55
2022/04/13 02:36:52;;;;;;;4.30;1.73;;;;;;;;;;5049220;28;20133;-53
2022/04/13 02:39:18;;;;;;;4.93;1.75;;;;;;;;;;5048542;28;20119;-54
2022/04/13 02:41:45;;;;;;;4.53;1.90;;;;;;;;;;5048303;28;20028;-55
2022/04/13 02:44:11;;;;;;;3.35;1.45;;;;;;;;;;5044913;28;20032;-55
2022/04/13 02:46:37;;;;;;;2.70;1.58;;;;;;;;;;5049484;28;20032;-57
2022/04/13 02:49:04;;;;;;;4.60;1.50;;;;;;;;;;5048439;28;20692;-54
2022/04/13 02:51:30;;;;;;;4.03;1.75;;;;;;;;;;5048872;28;20077;-52
2022/04/13 02:53:56;;;;;;;4.70;1.88;;;;;;;;;;5049083;28;20081;-56
2022/04/13 02:56:22;;;;;;;5.18;1.63;;;;;;;;;;5047620;28;20504;-53
2022/04/13 02:58:50;;;;;;;5.38;2.03;;;;;;;;;;5048612;28;20040;-57
2022/04/13 03:01:16;;;;;;;4.72;1.90;;;;;;;;;;5047943;28;20029;-55
2022/04/13 03:03:42;;;;;;;4.95;1.73;;;;;;;;;;5048900;28;20083;-56
2022/04/13 03:06:08;;;;;;;3.75;1.50;;;;;;;;;;5048156;28;20553;-55
2022/04/13 03:08:36;;;;;;;3.90;1.52;;;;;;;;;;5047961;28;20033;-57
2022/04/13 03:11:03;;;;;;;3.50;1.60;;;;;;;;;;5047637;28;20029;-56
2022/04/13 03:13:29;;;;;;;4.53;1.75;;;;;;;;;;5040336;28;20380;-56
2022/04/13 03:15:55;;;;;;;6.03;1.67;;;;;;;;;;5041875;28;20519;-58
2022/04/13 03:18:21;;;;;;;4.40;1.60;;;;;;;;;;5041473;28;20045;-57
2022/04/13 03:20:47;;;;;;;4.50;1.60;;;;;;;;;;5041187;28;20032;-58
2022/04/13 03:23:13;;;;;;;3.30;1.40;;;;;;;;;;5036597;28;20108;-57
2022/04/13 03:25:39;;;;;;;4.90;1.60;;;;;;;;;;5037035;28;20108;-57
2022/04/13 03:28:05;;;;;;;4.45;1.80;;;;;;;;;;5041435;28;20590;-56
2022/04/13 03:30:31;;;;;;;4.53;1.75;;;;;;;;;;5038146;28;20053;-57
2022/04/13 03:32:57;;;;;;;3.10;1.58;;;;;;;;;;5037127;28;20032;-57
2022/04/13 03:35:23;;;;;;;4.35;1.80;;;;;;;;;;5038437;28;20664;-55
2022/04/13 03:37:49;;;;;;;5.28;1.83;;;;;;;;;;5043603;28;20040;-54
2022/04/13 03:40:15;;;;;;;4.35;1.70;;;;;;;;;;5037197;28;20034;-56
2022/04/13 03:42:41;;;;;;;6.47;2.08;;;;;;;;;;5042139;28;20036;-57
2022/04/13 03:45:11;;;;;;;3.03;1.50;;;;;;;;;;5035061;28;20765;-55
2022/04/13 03:47:38;;;;;;;3.45;1.63;;;;;;;;;;5041410;28;20044;-55
2022/04/13 03:50:04;;;;;;;4.78;1.88;;;;;;;;;;5038767;28;20030;-57
2022/04/13 03:52:34;;;;;;;3.50;1.80;;;;;;;;;;5041392;28;20028;-56
2022/04/13 03:55:00;;;;;;;3.97;1.70;;;;;;;;;;5036871;28;20425;-55
2022/04/13 03:57:27;;;;;;;4.35;1.70;;;;;;;;;;5042227;28;20047;-56
2022/04/13 03:59:53;;;;;;;4.80;1.75;;;;;;;;;;5037474;28;20403;-56
2022/04/13 04:02:19;;;;;;;5.00;1.63;;;;;;;;;;5040655;28;20668;-56
2022/04/13 04:04:45;;;;;;;4.18;1.85;;;;;;;;;;5037039;28;20026;-54
2022/04/13 04:07:12;;;;;;;3.85;1.73;;;;;;;;;;5042129;28;20033;-55
2022/04/13 04:09:38;;;;;;;4.82;2.08;;;;;;;;;;5036751;28;20105;-56
2022/04/13 04:12:04;;;;;;;5.10;1.80;;;;;;;;;;5040427;28;20067;-56
2022/04/13 04:14:30;;;;;;;4.57;1.77;;;;;;;;;;5038900;28;20026;-55
2022/04/13 04:16:57;;;;;;;4.45;1.90;;;;;;;;;;5039571;28;20029;-57
2022/04/13 04:19:23;;;;;;;5.32;1.80;;;;;;;;;;5039786;28;20550;-54
2022/04/13 04:21:50;;;;;;;5.60;1.90;;;;;;;;;;5038922;28;20406;-56
2022/04/13 04:24:16;;;;;;;5.28;2.20;;;;;;;;;;5041995;28;20025;-54
2022/04/13 04:26:43;;;;;;;3.88;1.83;;;;;;;;;;5036922;28;20025;-54
2022/04/13 04:29:09;;;;;;;6.85;2.05;;;;;;;;;;5040137;28;20834;-56
2022/04/13 04:31:50;;;;;;;4.10;1.70;;;;;;;;;;5034659;28;20141;-55
2022/04/13 04:34:20;;;;;;;4.40;2.13;;;;;;;;;;5043879;28;20040;-53
2022/04/13 04:36:46;;;;;;;3.92;1.63;;;;;;;;;;5048109;28;20029;-52
2022/04/13 04:39:12;;;;;;;5.78;1.95;;;;;;;;;;5046661;28;20037;-54
2022/04/13 04:41:41;;;;;;;8.82;1.90;;;;;;;;;;5041228;28;20388;-56
2022/04/13 04:44:11;;;;;;;4.90;2.40;;;;;;;;;;5040939;28;20079;-52
2022/04/13 04:46:37;;;;;;;5.32;1.80;;;;;;;;;;5043449;28;20467;-53
2022/04/13 04:49:04;;;;;;;8.73;2.03;;;;;;;;;;5047439;28;20044;-55
2022/04/13 04:51:33;;;;;;;4.55;2.00;;;;;;;;;;5043608;28;20108;-56
2022/04/13 04:54:03;;;;;;;5.90;2.28;;;;;;;;;;5042446;28;20021;-57
2022/04/13 04:56:29;;;;;;;5.20;2.22;;;;;;;;;;5040961;28;20022;-56
2022/04/13 04:58:55;;;;;;;5.40;2.53;;;;;;;;;;5042113;28;20462;-54
2022/04/13 05:01:21;;;;;;;8.65;3.63;;;;;;;;;;5050364;28;20036;-56
2022/04/13 05:03:50;;;;;;;14.68;7.13;;;;;;;;;;5050969;28;20096;-52
2022/04/13 05:06:23;;;;;;;14.98;8.73;;;;;;;;;;5050613;28;20033;-57
2022/04/13 05:08:50;;;;;;;17.55;8.00;;;;;;;;;;5050898;28;20032;-56
2022/04/13 05:11:16;;;;;;;19.67;9.07;;;;;;;;;;5045876;28;20041;-57
2022/04/13 05:13:45;;;;;;;15.57;8.15;;;;;;;;;;5046980;28;20471;-57
2022/04/13 05:16:12;;;;;;;14.07;8.02;;;;;;;;;;5037462;28;20087;-55
2022/04/13 05:18:39;;;;;;;17.58;9.10;;;;;;;;;;5036161;28;20194;-56
2022/04/13 05:21:05;;;;;;;18.05;9.23;;;;;;;;;;5043114;28;20032;-51
2022/04/13 05:23:31;;;;;;;17.83;8.40;;;;;;;;;;5039229;28;20660;-56
2022/04/13 05:25:57;;;;;;;18.30;8.65;;;;;;;;;;5039484;28;20033;-56
2022/04/13 05:28:23;;;;;;;14.07;9.15;;;;;;;;;;5037397;28;20501;-52
2022/04/13 05:30:49;;;;;;;19.95;7.90;;;;;;;;;;5040730;28;20618;-56
2022/04/13 05:33:15;;;;;;;16.95;7.15;;;;;;;;;;5041486;28;20055;-55
2022/04/13 05:35:41;;;;;;;15.13;7.70;;;;;;;;;;5042714;28;20021;-57
2022/04/13 05:38:07;;;;;;;15.13;8.07;;;;;;;;;;5047965;28;20116;-55
2022/04/13 05:40:33;;;;;;;21.10;7.25;;;;;;;;;;5044175;28;20044;-56
2022/04/13 05:42:59;;;;;;;13.65;6.28;;;;;;;;;;5037123;28;20552;-56
2022/04/13 05:45:25;;;;;;;15.70;7.60;;;;;;;;;;5045279;28;20055;-54
2022/04/13 05:47:52;;;;;;;15.73;6.85;;;;;;;;;;5042202;28;20049;-58
2022/04/13 05:50:18;;;;;;;19.88;7.93;;;;;;;;;;5036504;28;20111;-54
2022/04/13 05:52:44;;;;;;;22.95;7.57;;;;;;;;;;5040074;28;20461;-57
2022/04/13 05:55:10;;;;;;;21.20;7.13;;;;;;;;;;5041198;28;20029;-56
2022/04/13 05:57:36;;;;;;;21.20;8.02;;;;;;;;;;5041582;28;20564;-56
2022/04/13 06:00:07;;;;;;;14.43;6.68;;;;;;;;;;5039594;28;20038;-56
2022/04/13 06:02:33;;;;;;;21.15;6.70;;;;;;;;;;5044822;28;20133;-56
2022/04/13 06:04:59;;;;;;;25.30;6.38;;;;;;;;;;5038406;28;20018;-55
2022/04/13 06:07:25;;;;;;;15.27;6.40;;;;;;;;;;5045269;28;20021;-57
2022/04/13 06:09:51;;;;;;;19.27;5.82;;;;;;;;;;5046493;28;20061;-56
2022/04/13 06:12:25;;;;;;;17.23;5.78;;;;;;;;;;5048005;28;20548;-56
2022/04/13 06:14:52;;;;;;;22.20;6.93;;;;;;;;;;5042628;28;20041;-56
2022/04/13 06:17:18;;;;;;;18.92;6.75;;;;;;;;;;5047898;28;20119;-57
2022/04/13 06:19:44;;;;;;;15.05;5.82;;;;;;;;;;5049105;28;20041;-58
2022/04/13 06:22:10;;;;;;;19.73;6.40;;;;;;;;;;5048614;28;20028;-57
2022/04/13 06:24:36;;;;;;;16.52;6.00;;;;;;;;;;5049359;28;20669;-59
2022/04/13 06:27:02;;;;;;;18.50;5.82;;;;;;;;;;5046496;28;20055;-59
2022/04/13 06:29:28;;;;;;;15.45;5.47;;;;;;;;;;5037455;28;20032;-57
2022/04/13 06:31:54;;;;;;;20.85;5.60;;;;;;;;;;5045098;28;20123;-58
2022/04/13 06:34:20;;;;;;;17.52;5.18;;;;;;;;;;5047927;28;20036;-58
2022/04/13 06:36:46;;;;;;;9.27;4.90;;;;;;;;;;5047632;28;20025;-59
2022/04/13 06:39:12;;;;;;;14.05;4.75;;;;;;;;;;5048843;28;20118;-59
2022/04/13 06:41:38;;;;;;;21.38;5.18;;;;;;;;;;5043674;28;20480;-53
2022/04/13 06:44:04;;;;;;;17.90;5.15;;;;;;;;;;5038486;28;20079;-58
2022/04/13 06:46:31;;;;;;;24.38;5.55;;;;;;;;;;5029983;28;20112;-58
2022/04/13 06:48:58;;;;;;;15.77;5.35;;;;;;;;;;5042651;28;20034;-60
2022/04/13 06:51:24;;;;;;;20.55;6.20;;;;;;;;;;5043387;28;20052;-59
2022/04/13 06:53:50;;;;;;;20.00;5.45;;;;;;;;;;5040748;28;20056;-59
2022/04/13 06:56:18;;;;;;;17.98;5.50;;;;;;;;;;5036979;28;20033;-60
2022/04/13 06:58:46;;;;;;;13.73;5.47;;;;;;;;;;5040310;28;20041;-60
2022/04/13 07:01:13;;;;;;;14.48;5.72;;;;;;;;;;5044423;28;20112;-59
2022/04/13 07:03:39;;;;;;;15.05;5.90;;;;;;;;;;5048524;28;20033;-64
2022/04/13 07:06:05;;;;;;;14.07;5.40;;;;;;;;;;5044598;28;20021;-60
2022/04/13 07:08:31;;;;;;;13.70;5.72;;;;;;;;;;5045545;28;20031;-59
2022/04/13 07:10:58;;;;;;;18.58;6.38;;;;;;;;;;5031213;28;20033;-59
2022/04/13 07:13:24;;;;;;;17.10;6.07;;;;;;;;;;5034716;28;20077;-59
2022/04/13 07:15:52;;;;;;;19.13;6.10;;;;;;;;;;5046631;28;20032;-59
2022/04/13 07:18:18;;;;;;;11.57;5.18;;;;;;;;;;5046082;28;20100;-59
2022/04/13 07:20:44;;;;;;;13.73;5.18;;;;;;;;;;5044186;28;20127;-59
2022/04/13 07:23:10;;;;;;;13.55;5.95;;;;;;;;;;5028660;28;20116;-59
2022/04/13 07:25:36;;;;;;;14.57;5.47;;;;;;;;;;5042766;28;20025;-59
2022/04/13 07:28:03;;;;;;;15.20;5.82;;;;;;;;;;5031242;28;20123;-59
2022/04/13 07:30:29;;;;;;;11.05;5.40;;;;;;;;;;5045191;28;20153;-60
2022/04/13 07:32:55;;;;;;;11.07;5.53;;;;;;;;;;5030769;28;20033;-60
2022/04/13 07:35:21;;;;;;;15.57;5.13;;;;;;;;;;5046214;28;20036;-60
2022/04/13 07:37:47;;;;;;;13.18;5.18;;;;;;;;;;5042933;28;20104;-59
2022/04/13 07:40:14;;;;;;;14.93;5.53;;;;;;;;;;5042661;28;20052;-60
2022/04/13 07:42:40;;;;;;;13.23;5.75;;;;;;;;;;5048441;28;20368;-59
2022/04/13 07:45:07;;;;;;;12.65;5.07;;;;;;;;;;5044123;28;20108;-59
2022/04/13 07:47:33;;;;;;;11.25;5.55;;;;;;;;;;5034673;28;20120;-59
2022/04/13 07:49:59;;;;;;;10.80;5.53;;;;;;;;;;5043428;28;20137;-59
2022/04/13 07:52:26;;;;;;;16.67;4.90;;;;;;;;;;5045055;28;20041;-61
2022/04/13 07:54:52;;;;;;;10.32;4.95;;;;;;;;;;5044942;28;20112;-60
2022/04/13 07:57:18;;;;;;;14.70;5.32;;;;;;;;;;5038479;28;20053;-59
2022/04/13 07:59:44;;;;;;;19.48;6.57;;;;;;;;;;5036773;28;20029;-59
2022/04/13 08:02:10;;;;;;;17.75;5.47;;;;;;;;;;5047869;28;20133;-60
2022/04/13 08:04:37;;;;;;;19.48;11.38;;;;;;;;;;5046982;28;20033;-59
2022/04/13 08:07:04;;;;;;;21.02;14.60;;;;;;;;;;5035097;28;20029;-58
2022/04/13 08:09:30;;;;;;;21.75;11.30;;;;;;;;;;5036082;28;20025;-58
2022/04/13 08:11:56;;;;;;;15.90;9.27;;;;;;;;;;5047261;28;20891;-59
2022/04/13 08:14:22;;;;;;;15.52;9.35;;;;;;;;;;5047515;28;20040;-58
2022/04/13 08:16:48;;;;;;;18.58;10.27;;;;;;;;;;5049044;28;20116;-57
2022/04/13 08:19:15;;;;;;;19.48;10.10;;;;;;;;;;5051277;28;20484;-57
2022/04/13 08:21:41;;;;;;;14.63;9.20;;;;;;;;;;5051507;28;20025;-57
2022/04/13 08:24:07;;;;;;;16.55;9.52;;;;;;;;;;5040993;28;20032;-58
2022/04/13 08:26:33;;;;;;;19.65;9.95;;;;;;;;;;5044012;28;20111;-59
2022/04/13 08:28:59;;;;;;;23.08;8.80;;;;;;;;;;5050676;28;20072;-59
2022/04/13 08:31:25;;;;;;;15.70;9.68;;;;;;;;;;5048930;28;20317;-58
2022/04/13 08:33:51;;;;;;;17.13;8.65;;;;;;;;;;5050945;28;20557;-59
2022/04/13 08:36:18;;;;;;;18.52;8.60;;;;;;;;;;5050158;28;20825;-58
2022/04/13 08:38:44;;;;;;;14.70;8.18;;;;;;;;;;5046365;28;20029;-58
2022/04/13 08:41:17;;;;;;;19.63;9.10;;;;;;;;;;5044761;28;20040;-58
2022/04/13 08:43:43;;;;;;;16.10;9.15;;;;;;;;;;5050588;28;20064;-58
2022/04/13 08:46:11;;;;;;;19.70;13.95;;;;;;;;;;5050536;28;20029;-57
2022/04/13 08:48:38;;;;;;;17.45;12.07;;;;;;;;;;5048262;28;20112;-60
2022/04/13 08:51:05;;;;;;;18.88;11.50;;;;;;;;;;5039501;28;20032;-60
2022/04/13 08:53:32;;;;;;;17.30;10.55;;;;;;;;;;5048991;28;20040;-60
2022/04/13 08:56:00;;;;;;;19.05;10.48;;;;;;;;;;5050013;28;20044;-61
2022/04/13 08:58:32;;;;;;;14.98;10.15;;;;;;;;;;5045738;28;20036;-59
2022/04/13 09:01:03;;;;;;;16.83;9.77;;;;;;;;;;5043420;28;20543;-58
2022/04/13 09:03:29;;;;;;;;;;;;;;;;;;5051431;28;20025;-59
2022/04/13 09:05:58;;;;;;;15.38;9.20;;;;;;;;;;5032600;28;20631;-57
2022/04/13 09:08:26;;;;;;;17.25;10.98;;;;;;;;;;5036452;28;20029;-55
2022/04/13 09:10:53;;;;;;;16.45;9.55;;;;;;;;;;5033086;28;20429;-55
2022/04/13 09:13:24;;;;;;;18.25;9.20;;;;;;;;;;5034765;28;20044;-55
2022/04/13 09:15:51;;;;;;;16.45;9.27;;;;;;;;;;5033097;28;20033;-57
2022/04/13 09:18:18;;;;;;;15.73;8.95;;;;;;;;;;5034370;28;20108;-56
2022/04/13 09:20:44;;;;;;;18.65;8.70;;;;;;;;;;5032314;28;20026;-56
2022/04/13 09:23:10;;;;;;;17.17;9.15;;;;;;;;;;5033694;28;20086;-57
2022/04/13 09:25:36;;;;;;;17.63;9.80;;;;;;;;;;5035492;28;20048;-59
2022/04/13 09:28:03;;;;;;;15.05;8.32;;;;;;;;;;5034317;28;20227;-56
2022/04/13 09:30:31;;;;;;;13.70;7.90;;;;;;;;;;5036448;28;20049;-56
2022/04/13 09:32:58;;;;;;;13.00;7.75;;;;;;;;;;5035312;28;20479;-57
2022/04/13 09:35:24;;;;;;;16.30;7.90;;;;;;;;;;5034316;28;20026;-57
2022/04/13 09:37:50;;;;;;;12.15;7.90;;;;;;;;;;5036392;28;20423;-56
2022/04/13 09:40:45;;;;;;;16.33;8.07;;;;;;;;;;5032264;28;20072;-57
2022/04/13 09:43:15;;;;;;;13.00;7.90;;;;;;;;;;5029398;28;20183;-57
2022/04/13 09:45:45;;;;;;;16.23;7.40;;;;;;;;;;5031824;28;20406;-58
2022/04/13 09:48:12;;;;;;;13.52;7.25;;;;;;;;;;5028971;28;20032;-56
2022/04/13 09:50:39;;;;;;;11.68;6.38;;;;;;;;;;5033146;28;20036;-56
2022/04/13 09:53:06;;;;;;;11.40;6.97;;;;;;;;;;5032020;28;20025;-57
2022/04/13 09:55:37;;;;;;;11.02;6.70;;;;;;;;;;5033916;28;20040;-57
2022/04/13 09:58:11;;;;;;;9.88;5.72;;;;;;;;;;5030565;28;20037;-57
2022/04/13 10:00:38;;;;;;;10.73;6.00;;;;;;;;;;5035150;28;20112;-56
2022/04/13 10:03:12;;;;;;;12.40;6.47;;;;;;;;;;5031018;28;20037;-57
2022/04/13 10:05:39;;;;;;;13.38;6.30;;;;;;;;;;5035081;28;20048;-57
2022/04/13 10:08:06;;;;;;;16.10;6.68;;;;;;;;;;5035152;28;20037;-57
2022/04/13 10:10:32;;;;;;;11.52;6.07;;;;;;;;;;5035012;28;20022;-56
2022/04/13 10:12:58;;;;;;;9.30;5.95;;;;;;;;;;5030708;28;20021;-56
2022/04/13 10:15:25;;;;;;;9.27;5.75;;;;;;;;;;5033532;28;20024;-57
2022/04/13 10:17:56;;;;;;;10.23;6.10;;;;;;;;;;5032153;28;20079;-58
2022/04/13 10:20:22;;;;;;;10.43;5.82;;;;;;;;;;5031024;28;20044;-57
2022/04/13 10:23:02;;;;;;;9.85;5.35;;;;;;;;;;5032156;28;20387;-58
2022/04/13 10:25:29;;;;;;;10.98;6.03;;;;;;;;;;5030728;28;20038;-57
2022/04/13 10:27:56;;;;;;;9.30;5.75;;;;;;;;;;5028425;28;20021;-57
2022/04/13 10:30:29;;;;;;;11.15;5.53;;;;;;;;;;5034267;28;20049;-57
2022/04/13 10:32:59;;;;;;;10.95;5.18;;;;;;;;;;5032385;28;20527;-57
2022/04/13 10:35:26;;;;;;;10.57;5.20;;;;;;;;;;5033257;28;20031;-57
2022/04/13 10:37:52;;;;;;;14.32;5.88;;;;;;;;;;5035789;28;20043;-58
2022/04/13 10:40:20;;;;;;;10.95;5.00;;;;;;;;;;5034348;28;20037;-57
2022/04/13 10:42:48;;;;;;;10.52;5.53;;;;;;;;;;5034919;28;20108;-55
2022/04/13 10:45:14;;;;;;;9.70;5.07;;;;;;;;;;5037867;28;20166;-56
2022/04/13 10:47:41;;;;;;;10.15;4.90;;;;;;;;;;5032096;28;20068;-55
2022/04/13 10:50:08;;;;;;;9.30;5.35;;;;;;;;;;5032481;28;20040;-57
2022/04/13 10:52:41;;;;;;;10.75;5.32;;;;;;;;;;5033148;28;20057;-56
2022/04/13 10:55:09;;;;;;;8.85;5.38;;;;;;;;;;5033913;28;20136;-57
2022/04/13 10:57:40;;;;;;;12.07;5.22;;;;;;;;;;5036408;28;20033;-54
2022/04/13 11:00:07;;;;;;;9.63;5.00;;;;;;;;;;5035256;28;20047;-57
2022/04/13 11:02:35;;;;;;;7.85;4.60;;;;;;;;;;5030882;28;20105;-57
2022/04/13 11:05:02;;;;;;;11.48;5.43;;;;;;;;;;5033467;28;20385;-54
2022/04/13 11:07:28;;;;;;;7.32;4.82;;;;;;;;;;5032306;28;20032;-57
2022/04/13 11:09:58;;;;;;;10.15;4.97;;;;;;;;;;5034767;28;20111;-59
2022/04/13 11:12:26;;;;;;;8.13;4.78;;;;;;;;;;5033593;28;20021;-56
2022/04/13 11:14:55;;;;;;;7.95;4.60;;;;;;;;;;5033840;28;20048;-57
2022/04/13 11:17:25;;;;;;;9.38;4.43;;;;;;;;;;5036088;28;20710;-56
2022/04/13 11:19:51;;;;;;;9.05;4.35;;;;;;;;;;5033439;28;20067;-55
2022/04/13 11:22:17;;;;;;;6.82;4.40;;;;;;;;;;5033078;28;20053;-56
2022/04/13 11:24:46;;;;;;;8.98;4.53;;;;;;;;;;5035504;28;20051;-56
2022/04/13 11:27:12;;;;;;;9.45;4.90;;;;;;;;;;5034075;28;20111;-56
2022/04/13 11:29:42;;;;;;;8.30;4.40;;;;;;;;;;5032612;28;20036;-55
2022/04/13 11:32:13;;;;;;;8.30;4.70;;;;;;;;;;5030185;28;20824;-55
2022/04/13 11:34:52;;;;;;;8.60;4.93;;;;;;;;;;5034523;28;20051;-55
2022/04/13 11:37:20;;;;;;;9.23;4.22;;;;;;;;;;5034183;28;20021;-55
2022/04/13 11:39:47;;;;;;;8.43;4.45;;;;;;;;;;5034712;28;20049;-55
2022/04/13 11:42:25;;;;;;;9.88;4.63;;;;;;;;;;5029983;28;20491;-57
2022/04/13 11:44:53;;;;;;;9.63;4.30;;;;;;;;;;5032569;28;20024;-56
2022/04/13 11:47:20;;;;;;;6.88;4.20;;;;;;;;;;5032168;28;20112;-57
2022/04/13 11:49:58;;;;;;;7.68;4.55;;;;;;;;;;5036224;28;20087;-56
2022/04/13 11:52:42;;;;;;;8.00;4.40;;;;;;;;;;5047758;28;20052;-56
2022/04/13 11:55:18;;;;;;;9.73;4.07;;;;;;;;;;5035046;28;20041;-55
2022/04/13 11:58:03;;;;;;;11.13;4.43;;;;;;;;;;5041114;28;20021;-56
2022/04/13 12:00:38;;;;;;;8.25;4.47;;;;;;;;;;5054306;28;20120;-57
2022/04/13 12:03:13;;;;;;;7.45;3.45;;;;;;;;;;5053473;28;20479;-56
2022/04/13 12:05:40;;;;;;;6.97;3.70;;;;;;;;;;5054744;28;20025;-57
2022/04/13 12:08:13;;;;;;;8.50;3.53;;;;;;;;;;5054480;28;20025;-56
2022/04/13 12:10:40;;;;;;;6.90;3.80;;;;;;;;;;5053947;28;20033;-54
2022/04/13 12:13:06;;;;;;;8.65;3.50;;;;;;;;;;5053706;28;20398;-57
2022/04/13 12:15:50;;;;;;;8.95;5.03;;;;;;;;;;5053546;28;20033;-57
2022/04/13 12:18:16;;;;;;;11.60;4.55;;;;;;;;;;5054077;28;20478;-54
2022/04/13 12:20:43;;;;;;;8.63;4.10;;;;;;;;;;5054324;28;20044;-56
2022/04/13 12:23:18;;;;;;;5.88;3.55;;;;;;;;;;5054178;28;20383;-53
2022/04/13 12:25:45;;;;;;;8.00;3.63;;;;;;;;;;5055305;28;20017;-57
2022/04/13 12:28:11;;;;;;;7.57;3.55;;;;;;;;;;5055648;28;20116;-57
2022/04/13 12:30:37;;;;;;;8.45;3.60;;;;;;;;;;5055211;28;20117;-57
2022/04/13 12:33:15;;;;;;;7.53;3.40;;;;;;;;;;5055516;28;20427;-55
2022/04/13 12:36:07;;;;;;;5.20;3.50;;;;;;;;;;5055469;28;20039;-54
2022/04/13 12:38:36;;;;;;;6.38;3.83;;;;;;;;;;5054061;28;20518;-55
2022/04/13 12:41:07;;;;;;;7.30;3.75;;;;;;;;;;5055493;28;20036;-54
2022/04/13 12:43:33;;;;;;;6.47;3.38;;;;;;;;;;5055482;28;20399;-56
2022/04/13 12:46:07;;;;;;;7.50;3.20;;;;;;;;;;5055038;28;20041;-57
2022/04/13 12:48:33;;;;;;;6.10;3.53;;;;;;;;;;5055474;28;20537;-56
2022/04/13 12:51:00;;;;;;;5.88;3.88;;;;;;;;;;5054950;28;20024;-56
2022/04/13 12:53:27;;;;;;;6.45;3.60;;;;;;;;;;5055187;28;20032;-57
2022/04/13 12:55:57;;;;;;;5.68;3.30;;;;;;;;;;5055146;28;20606;-56
2022/04/13 12:58:24;;;;;;;5.88;3.20;;;;;;;;;;5034929;28;20388;-56
2022/04/13 13:00:54;;;;;;;5.65;3.30;;;;;;;;;;5049266;28;20170;-56
2022/04/13 13:03:21;;;;;;;8.40;3.67;;;;;;;;;;5052740;28;20104;-56
2022/04/13 13:05:48;;;;;;;8.40;3.72;;;;;;;;;;5051505;28;20062;-57
2022/04/13 13:08:14;;;;;;;8.43;3.08;;;;;;;;;;5052081;28;20083;-55
2022/04/13 13:10:44;;;;;;;8.48;3.60;;;;;;;;;;5051940;28;20029;-55
2022/04/13 13:13:17;;;;;;;5.18;3.03;;;;;;;;;;5052274;28;20116;-54
2022/04/13 13:15:43;;;;;;;6.68;3.45;;;;;;;;;;5051637;28;20427;-55
2022/04/13 13:18:10;;;;;;;8.15;3.88;;;;;;;;;;5051964;28;20025;-57
2022/04/13 13:20:52;;;;;;;7.82;3.83;;;;;;;;;;5051091;28;20124;-56
2022/04/13 13:23:23;;;;;;;8.55;3.33;;;;;;;;;;5052083;28;20078;-56
2022/04/13 13:25:49;;;;;;;5.93;3.55;;;;;;;;;;5051823;28;20394;-56
2022/04/13 13:28:15;;;;;;;5.20;3.00;;;;;;;;;;5052315;28;20025;-57
2022/04/13 13:30:45;;;;;;;6.28;3.05;;;;;;;;;;5051551;28;20976;-56
2022/04/13 13:33:11;;;;;;;;;;;;;;;;;;5051902;28;20029;-56
2022/04/13 13:35:37;;;;;;;7.03;3.80;;;;;;;;;;5051065;28;20338;-56
2022/04/13 13:38:07;;;;;;;6.03;3.28;;;;;;;;;;5051476;28;20527;-55
2022/04/13 13:40:33;;;;;;;7.05;3.33;;;;;;;;;;5051809;28;20040;-56
2022/04/13 13:43:00;;;;;;;5.68;2.90;;;;;;;;;;5050984;28;20059;-56
2022/04/13 13:45:29;;;;;;;5.60;3.33;;;;;;;;;;5051266;28;20033;-55
2022/04/13 13:47:56;;;;;;;6.65;2.95;;;;;;;;;;5050592;28;20098;-55
2022/04/13 13:50:22;;;;;;;5.97;2.90;;;;;;;;;;5051266;28;20044;-56
2022/04/13 13:52:48;;;;;;;5.75;2.80;;;;;;;;;;5051276;28;20448;-56
2022/04/13 13:55:22;;;;;;;5.32;2.95;;;;;;;;;;5051546;28;20103;-56
2022/04/13 13:57:48;;;;;;;5.72;3.13;;;;;;;;;;5051165;28;20025;-54
2022/04/13 14:00:15;;;;;;;5.35;2.88;;;;;;;;;;5051381;28;20025;-55
2022/04/13 14:02:41;;;;;;;6.15;2.95;;;;;;;;;;5050790;28;20035;-56
2022/04/13 14:05:07;;;;;;;6.15;3.17;;;;;;;;;;5051092;28;20063;-56
2022/04/13 14:07:34;;;;;;;3.55;2.10;;;;;;;;;;5050786;28;20056;-51
2022/04/13 14:10:00;;;;;;;6.22;2.70;;;;;;;;;;5050730;28;20513;-51
2022/04/13 14:12:26;;;;;;;4.38;2.80;;;;;;;;;;5050358;28;20032;-52
2022/04/13 14:14:54;;;;;;;5.13;3.03;;;;;;;;;;5049351;28;20033;-56
2022/04/13 14:17:21;;;;;;;5.05;2.75;;;;;;;;;;5042906;28;20032;-56
2022/04/13 14:19:47;;;;;;;5.38;3.00;;;;;;;;;;5040774;28;20028;-56
2022/04/13 14:22:13;;;;;;;7.55;3.08;;;;;;;;;;5044189;28;20025;-53
2022/04/13 14:24:39;;;;;;;5.28;2.63;;;;;;;;;;5040865;28;20108;-53
2022/04/13 14:27:05;;;;;;;6.63;2.45;;;;;;;;;;5040254;28;20049;-56
2022/04/13 14:29:31;;;;;;;7.25;3.08;;;;;;;;;;5043364;28;20520;-56
2022/04/13 14:31:57;;;;;;;11.90;3.88;;;;;;;;;;5041069;28;20122;-57
2022/04/13 14:34:23;;;;;;;11.00;3.75;;;;;;;;;;5042938;28;20096;-55
2022/04/13 14:36:49;;;;;;;11.15;4.03;;;;;;;;;;5038966;28;20033;-57
2022/04/13 14:39:15;;;;;;;12.35;3.90;;;;;;;;;;5043302;28;20095;-56